Fort Hood, TX

7:31 AM CDT on June 24, 2017 (GMT -0500)
Killeen-Fort Hood Regional | | Change Station

Elev 1014 ft 31.07 °N, 97.83 °W | Updated 7 minutes ago

Rain
Rain
70 °F
Feels Like 70 °F
N
10
Wind Variable Wind from ENE
Gusts 29 mph

Today
High -- | Low -- °F
--% Chance of Precip.
Yesterday
High -- | Low -- °F
Precip. -- in
Pressure 30.04 in
Visibility 2.2 miles
Clouds Scattered Clouds 700 ft
Mostly Cloudy 1500 ft
Overcast 2100 ft
Dew Point 68 °F
Humidity 94%
Rainfall 0.00 in
Snow Depth Not available.
6:28 AM 8:38 PM
New Moon, 0% visible
SPECI KGRK 241224Z AUTO 07009G25KT 2 1/4SM -RA BR SCT007 BKN015 OVC021 21/20 A3007 RMK AO2 VIS 2 1/4V6 VIS 7/8 RWY33 LTG DSNT W-NE AND SE RAB11 SLP171 $
Pressure 30.04 in
Visibility 2.2 miles
Clouds Scattered Clouds 700 ft
Mostly Cloudy 1500 ft
Overcast 2100 ft
Dew Point 68 °F
Humidity 94%
Rainfall 0.00 in
Snow Depth Not available.
6:28 AM 8:38 PM
New Moon, 0% visible
SPECI KGRK 241224Z AUTO 07009G25KT 2 1/4SM -RA BR SCT007 BKN015 OVC021 21/20 A3007 RMK AO2 VIS 2 1/4V6 VIS 7/8 RWY33 LTG DSNT W-NE AND SE RAB11 SLP171 $

Get Severe Weather Alerts

Thanks for signing up!

Be on the lookout for a verification email in your inbox.

You'll start receiving the daily forecast at 6 AM.

×

10-Day Weather Forecast

Almanac

Astronomy

Jun. 24, 2017 Rise Set
Actual Time
Civil Twilight
Nautical Twilight
Astronomical Twilight
Moon
Length of Visible Light
Length of Day
Tomorrow will be .
, % of the Moon is Illuminated

Today's Extremes

State Highs State Lows

Community

WunderPhotos

Category 6

Welcome to Category 6. This is the collective home for Weather Underground's featured writeups by Dr. Jeff Masters (right), Bob Henson (left), Chris Burt, and other regular contributors.

Nearby

Air Quality

  Air Quality AQ Index Pollutant
Not available.

Snow Depth

Station Depth Elevation

Earthquake Activity

City Distance Mag. Time & Date
Minimum magnitude displayed is 2.5.

Coastal Water Temperatures

Place Temperature

Stations

Nearby Weather Stations

Station Location Temp. Windchill Dew Point Humidity Wind Precip. Elev Updated Type
                   

Watches & Warnings

There are currently no watches in effect.